sensor_id;sensor_type;location;lat;lon;timestamp;P1;durP1;ratioP1;P2;durP2;ratioP2
69502;SDS011;56704;54.242;12.442;2024-01-10T00:01:00;32.67;;;10.38;;
69502;SDS011;56704;54.242;12.442;2024-01-10T00:03:27;32.38;;;10.27;;
69502;SDS011;56704;54.242;12.442;2024-01-10T00:05:54;30.23;;;10.05;;
69502;SDS011;56704;54.242;12.442;2024-01-10T00:08:21;28.73;;;9.83;;
69502;SDS011;56704;54.242;12.442;2024-01-10T00:10:47;28.85;;;10.65;;
69502;SDS011;56704;54.242;12.442;2024-01-10T00:13:14;28.75;;;10.27;;
69502;SDS011;56704;54.242;12.442;2024-01-10T00:15:42;30.17;;;10.63;;
69502;SDS011;56704;54.242;12.442;2024-01-10T00:18:09;28.80;;;9.82;;
69502;SDS011;56704;54.242;12.442;2024-01-10T00:20:35;26.63;;;9.73;;
69502;SDS011;56704;54.242;12.442;2024-01-10T00:23:08;26.42;;;9.80;;
69502;SDS011;56704;54.242;12.442;2024-01-10T00:25:51;26.05;;;9.30;;
69502;SDS011;56704;54.242;12.442;2024-01-10T00:28:18;26.63;;;9.85;;
69502;SDS011;56704;54.242;12.442;2024-01-10T00:30:46;31.65;;;10.50;;
69502;SDS011;56704;54.242;12.442;2024-01-10T00:33:13;21.53;;;8.83;;
69502;SDS011;56704;54.242;12.442;2024-01-10T00:35:39;27.75;;;9.50;;
69502;SDS011;56704;54.242;12.442;2024-01-10T00:38:06;24.40;;;8.73;;
69502;SDS011;56704;54.242;12.442;2024-01-10T00:40:33;26.90;;;8.95;;
69502;SDS011;56704;54.242;12.442;2024-01-10T00:42:59;25.98;;;9.23;;
69502;SDS011;56704;54.242;12.442;2024-01-10T00:45:26;25.57;;;9.57;;
69502;SDS011;56704;54.242;12.442;2024-01-10T00:47:54;24.55;;;9.27;;
69502;SDS011;56704;54.242;12.442;2024-01-10T00:50:21;27.67;;;9.52;;
69502;SDS011;56704;54.242;12.442;2024-01-10T00:52:47;23.52;;;9.02;;
69502;SDS011;56704;54.242;12.442;2024-01-10T00:55:14;22.30;;;8.30;;
69502;SDS011;56704;54.242;12.442;2024-01-10T00:57:40;22.77;;;8.37;;
69502;SDS011;56704;54.242;12.442;2024-01-10T01:00:07;22.30;;;8.15;;
69502;SDS011;56704;54.242;12.442;2024-01-10T01:02:35;21.45;;;8.40;;
69502;SDS011;56704;54.242;12.442;2024-01-10T01:05:06;21.85;;;8.48;;
69502;SDS011;56704;54.242;12.442;2024-01-10T01:07:33;25.75;;;8.90;;
69502;SDS011;56704;54.242;12.442;2024-01-10T01:10:00;24.60;;;9.43;;
69502;SDS011;56704;54.242;12.442;2024-01-10T01:12:26;20.50;;;7.60;;
69502;SDS011;56704;54.242;12.442;2024-01-10T01:14:53;21.65;;;8.60;;
69502;SDS011;56704;54.242;12.442;2024-01-10T01:17:20;21.30;;;8.50;;
69502;SDS011;56704;54.242;12.442;2024-01-10T01:19:46;22.10;;;9.18;;
69502;SDS011;56704;54.242;12.442;2024-01-10T01:22:15;24.10;;;8.20;;
69502;SDS011;56704;54.242;12.442;2024-01-10T01:24:41;21.55;;;8.05;;
69502;SDS011;56704;54.242;12.442;2024-01-10T01:27:08;22.90;;;8.50;;
69502;SDS011;56704;54.242;12.442;2024-01-10T01:29:35;20.75;;;7.82;;
69502;SDS011;56704;54.242;12.442;2024-01-10T01:32:02;23.55;;;7.78;;
69502;SDS011;56704;54.242;12.442;2024-01-10T01:34:28;21.83;;;8.00;;
69502;SDS011;56704;54.242;12.442;2024-01-10T01:36:55;20.83;;;8.57;;
69502;SDS011;56704;54.242;12.442;2024-01-10T01:39:23;22.08;;;8.65;;
69502;SDS011;56704;54.242;12.442;2024-01-10T01:41:49;23.27;;;9.32;;
69502;SDS011;56704;54.242;12.442;2024-01-10T01:44:16;22.92;;;9.02;;
69502;SDS011;56704;54.242;12.442;2024-01-10T01:46:43;21.40;;;7.67;;
69502;SDS011;56704;54.242;12.442;2024-01-10T01:49:12;20.33;;;8.15;;
69502;SDS011;56704;54.242;12.442;2024-01-10T01:51:38;20.55;;;9.02;;
69502;SDS011;56704;54.242;12.442;2024-01-10T01:54:06;20.83;;;8.27;;
69502;SDS011;56704;54.242;12.442;2024-01-10T01:56:36;22.42;;;8.25;;
69502;SDS011;56704;54.242;12.442;2024-01-10T01:59:03;20.67;;;8.03;;
69502;SDS011;56704;54.242;12.442;2024-01-10T02:01:30;22.70;;;8.98;;
69502;SDS011;56704;54.242;12.442;2024-01-10T02:03:57;21.48;;;8.88;;
69502;SDS011;56704;54.242;12.442;2024-01-10T02:06:26;21.88;;;8.27;;
69502;SDS011;56704;54.242;12.442;2024-01-10T02:08:54;21.85;;;8.35;;
69502;SDS011;56704;54.242;12.442;2024-01-10T02:11:21;21.73;;;8.10;;
69502;SDS011;56704;54.242;12.442;2024-01-10T02:13:50;21.17;;;7.55;;
69502;SDS011;56704;54.242;12.442;2024-01-10T02:16:19;20.67;;;7.95;;
69502;SDS011;56704;54.242;12.442;2024-01-10T02:18:46;22.55;;;7.53;;
69502;SDS011;56704;54.242;12.442;2024-01-10T02:21:13;21.55;;;7.78;;
69502;SDS011;56704;54.242;12.442;2024-01-10T02:23:39;18.67;;;7.47;;
69502;SDS011;56704;54.242;12.442;2024-01-10T02:26:07;18.92;;;7.90;;
69502;SDS011;56704;54.242;12.442;2024-01-10T02:28:34;21.17;;;8.05;;
69502;SDS011;56704;54.242;12.442;2024-01-10T02:31:00;20.65;;;9.00;;
69502;SDS011;56704;54.242;12.442;2024-01-10T02:33:28;22.40;;;7.88;;
69502;SDS011;56704;54.242;12.442;2024-01-10T02:35:54;17.93;;;7.43;;
69502;SDS011;56704;54.242;12.442;2024-01-10T02:38:21;20.02;;;7.45;;
69502;SDS011;56704;54.242;12.442;2024-01-10T02:40:48;20.88;;;7.97;;
69502;SDS011;56704;54.242;12.442;2024-01-10T02:43:16;20.38;;;7.85;;
69502;SDS011;56704;54.242;12.442;2024-01-10T02:45:43;20.40;;;8.32;;
69502;SDS011;56704;54.242;12.442;2024-01-10T02:48:09;22.80;;;7.77;;
69502;SDS011;56704;54.242;12.442;2024-01-10T02:50:36;20.77;;;7.65;;
69502;SDS011;56704;54.242;12.442;2024-01-10T02:53:03;19.70;;;8.02;;
69502;SDS011;56704;54.242;12.442;2024-01-10T02:55:30;18.33;;;7.72;;
69502;SDS011;56704;54.242;12.442;2024-01-10T02:57:56;20.50;;;7.30;;
69502;SDS011;56704;54.242;12.442;2024-01-10T03:00:24;16.10;;;6.30;;
69502;SDS011;56704;54.242;12.442;2024-01-10T03:02:51;15.25;;;6.05;;
69502;SDS011;56704;54.242;12.442;2024-01-10T03:05:18;15.65;;;6.00;;
69502;SDS011;56704;54.242;12.442;2024-01-10T03:07:44;14.60;;;5.43;;
69502;SDS011;56704;54.242;12.442;2024-01-10T03:10:11;16.90;;;6.57;;
69502;SDS011;56704;54.242;12.442;2024-01-10T03:12:39;14.43;;;6.00;;
69502;SDS011;56704;54.242;12.442;2024-01-10T03:15:06;15.82;;;5.80;;
69502;SDS011;56704;54.242;12.442;2024-01-10T03:17:34;14.45;;;5.95;;
69502;SDS011;56704;54.242;12.442;2024-01-10T03:20:01;14.00;;;6.35;;
69502;SDS011;56704;54.242;12.442;2024-01-10T03:22:28;15.65;;;6.28;;
69502;SDS011;56704;54.242;12.442;2024-01-10T03:24:55;14.67;;;6.20;;
69502;SDS011;56704;54.242;12.442;2024-01-10T03:27:22;14.63;;;5.97;;
69502;SDS011;56704;54.242;12.442;2024-01-10T03:29:48;14.98;;;6.30;;
69502;SDS011;56704;54.242;12.442;2024-01-10T03:32:15;15.32;;;5.68;;
69502;SDS011;56704;54.242;12.442;2024-01-10T03:34:43;14.68;;;6.32;;
69502;SDS011;56704;54.242;12.442;2024-01-10T03:37:09;15.00;;;5.80;;
69502;SDS011;56704;54.242;12.442;2024-01-10T03:39:36;13.73;;;5.72;;
69502;SDS011;56704;54.242;12.442;2024-01-10T03:42:03;13.88;;;6.20;;
69502;SDS011;56704;54.242;12.442;2024-01-10T03:44:29;13.63;;;5.28;;
69502;SDS011;56704;54.242;12.442;2024-01-10T03:46:56;14.95;;;6.22;;
69502;SDS011;56704;54.242;12.442;2024-01-10T03:49:22;16.70;;;5.97;;
69502;SDS011;56704;54.242;12.442;2024-01-10T03:51:51;15.77;;;6.35;;
69502;SDS011;56704;54.242;12.442;2024-01-10T03:54:17;12.95;;;5.45;;
69502;SDS011;56704;54.242;12.442;2024-01-10T03:56:44;13.60;;;5.15;;
69502;SDS011;56704;54.242;12.442;2024-01-10T03:59:10;13.48;;;5.20;;
69502;SDS011;56704;54.242;12.442;2024-01-10T04:01:37;13.23;;;4.77;;
69502;SDS011;56704;54.242;12.442;2024-01-10T04:04:04;13.82;;;5.10;;
69502;SDS011;56704;54.242;12.442;2024-01-10T04:06:31;13.52;;;5.47;;
69502;SDS011;56704;54.242;12.442;2024-01-10T04:08:59;13.45;;;4.63;;
69502;SDS011;56704;54.242;12.442;2024-01-10T04:11:26;11.30;;;4.28;;
69502;SDS011;56704;54.242;12.442;2024-01-10T04:13:53;9.37;;;4.20;;
69502;SDS011;56704;54.242;12.442;2024-01-10T04:16:19;11.82;;;4.63;;
69502;SDS011;56704;54.242;12.442;2024-01-10T04:18:46;11.55;;;4.57;;
69502;SDS011;56704;54.242;12.442;2024-01-10T04:21:12;11.50;;;4.78;;
69502;SDS011;56704;54.242;12.442;2024-01-10T04:23:39;11.60;;;4.50;;
69502;SDS011;56704;54.242;12.442;2024-01-10T04:26:07;12.27;;;4.40;;
69502;SDS011;56704;54.242;12.442;2024-01-10T04:28:33;12.98;;;4.40;;
69502;SDS011;56704;54.242;12.442;2024-01-10T04:31:01;11.50;;;4.70;;
69502;SDS011;56704;54.242;12.442;2024-01-10T04:33:28;13.20;;;4.60;;
69502;SDS011;56704;54.242;12.442;2024-01-10T04:35:55;12.52;;;4.45;;
69502;SDS011;56704;54.242;12.442;2024-01-10T04:38:21;10.83;;;4.90;;
69502;SDS011;56704;54.242;12.442;2024-01-10T04:40:51;12.65;;;4.43;;
69502;SDS011;56704;54.242;12.442;2024-01-10T04:43:19;12.45;;;4.70;;
69502;SDS011;56704;54.242;12.442;2024-01-10T04:45:45;12.07;;;4.20;;
69502;SDS011;56704;54.242;12.442;2024-01-10T04:48:12;12.35;;;4.45;;
69502;SDS011;56704;54.242;12.442;2024-01-10T04:50:38;12.17;;;5.30;;
69502;SDS011;56704;54.242;12.442;2024-01-10T04:53:05;13.50;;;4.80;;
69502;SDS011;56704;54.242;12.442;2024-01-10T04:55:32;12.45;;;4.30;;
69502;SDS011;56704;54.242;12.442;2024-01-10T04:57:58;10.68;;;4.28;;
69502;SDS011;56704;54.242;12.442;2024-01-10T05:00:27;12.52;;;4.65;;
69502;SDS011;56704;54.242;12.442;2024-01-10T05:02:53;10.60;;;4.30;;
69502;SDS011;56704;54.242;12.442;2024-01-10T05:05:22;11.05;;;4.07;;
69502;SDS011;56704;54.242;12.442;2024-01-10T05:07:49;11.82;;;4.38;;
69502;SDS011;56704;54.242;12.442;2024-01-10T05:10:16;12.27;;;4.63;;
69502;SDS011;56704;54.242;12.442;2024-01-10T05:12:42;11.20;;;4.50;;
69502;SDS011;56704;54.242;12.442;2024-01-10T05:15:09;11.17;;;3.53;;
69502;SDS011;56704;54.242;12.442;2024-01-10T05:17:37;10.77;;;4.07;;
69502;SDS011;56704;54.242;12.442;2024-01-10T05:20:04;12.75;;;4.50;;
69502;SDS011;56704;54.242;12.442;2024-01-10T05:22:32;11.55;;;4.22;;
69502;SDS011;56704;54.242;12.442;2024-01-10T05:25:00;11.98;;;4.28;;
69502;SDS011;56704;54.242;12.442;2024-01-10T05:27:26;12.87;;;4.13;;
69502;SDS011;56704;54.242;12.442;2024-01-10T05:29:53;11.05;;;4.07;;
69502;SDS011;56704;54.242;12.442;2024-01-10T05:32:20;13.05;;;4.10;;
69502;SDS011;56704;54.242;12.442;2024-01-10T05:34:48;12.15;;;4.07;;
69502;SDS011;56704;54.242;12.442;2024-01-10T05:37:14;13.48;;;4.38;;
69502;SDS011;56704;54.242;12.442;2024-01-10T05:39:41;14.80;;;4.77;;
69502;SDS011;56704;54.242;12.442;2024-01-10T05:42:08;11.45;;;4.55;;
69502;SDS011;56704;54.242;12.442;2024-01-10T05:44:34;11.30;;;5.00;;
69502;SDS011;56704;54.242;12.442;2024-01-10T05:47:01;11.43;;;4.47;;
69502;SDS011;56704;54.242;12.442;2024-01-10T05:49:27;10.93;;;4.40;;
69502;SDS011;56704;54.242;12.442;2024-01-10T05:51:56;12.27;;;3.80;;
69502;SDS011;56704;54.242;12.442;2024-01-10T05:54:22;12.90;;;3.90;;
69502;SDS011;56704;54.242;12.442;2024-01-10T05:56:49;9.52;;;3.97;;
69502;SDS011;56704;54.242;12.442;2024-01-10T05:59:15;12.40;;;4.07;;
69502;SDS011;56704;54.242;12.442;2024-01-10T06:01:54;8.80;;;3.80;;
69502;SDS011;56704;54.242;12.442;2024-01-10T06:04:21;9.80;;;3.87;;
69502;SDS011;56704;54.242;12.442;2024-01-10T06:06:48;12.43;;;3.63;;
69502;SDS011;56704;54.242;12.442;2024-01-10T06:09:15;10.18;;;4.10;;
69502;SDS011;56704;54.242;12.442;2024-01-10T06:11:46;11.45;;;3.95;;
69502;SDS011;56704;54.242;12.442;2024-01-10T06:14:13;11.10;;;4.18;;
69502;SDS011;56704;54.242;12.442;2024-01-10T06:16:40;10.27;;;4.03;;
69502;SDS011;56704;54.242;12.442;2024-01-10T06:19:06;11.43;;;4.03;;
69502;SDS011;56704;54.242;12.442;2024-01-10T06:21:34;11.85;;;4.38;;
69502;SDS011;56704;54.242;12.442;2024-01-10T06:24:00;10.52;;;3.80;;
69502;SDS011;56704;54.242;12.442;2024-01-10T06:26:28;12.63;;;3.95;;
69502;SDS011;56704;54.242;12.442;2024-01-10T06:28:55;13.10;;;3.97;;
69502;SDS011;56704;54.242;12.442;2024-01-10T06:31:22;11.15;;;4.28;;
69502;SDS011;56704;54.242;12.442;2024-01-10T06:33:48;15.80;;;4.78;;
69502;SDS011;56704;54.242;12.442;2024-01-10T06:36:15;11.15;;;4.05;;
69502;SDS011;56704;54.242;12.442;2024-01-10T06:38:42;11.65;;;4.40;;
69502;SDS011;56704;54.242;12.442;2024-01-10T06:41:08;11.20;;;4.20;;
69502;SDS011;56704;54.242;12.442;2024-01-10T06:43:36;13.10;;;4.75;;
69502;SDS011;56704;54.242;12.442;2024-01-10T06:46:03;12.48;;;4.60;;
69502;SDS011;56704;54.242;12.442;2024-01-10T06:48:29;16.48;;;5.50;;
69502;SDS011;56704;54.242;12.442;2024-01-10T06:50:57;18.58;;;6.15;;
69502;SDS011;56704;54.242;12.442;2024-01-10T06:53:23;23.13;;;7.97;;
69502;SDS011;56704;54.242;12.442;2024-01-10T06:55:50;21.13;;;7.18;;
69502;SDS011;56704;54.242;12.442;2024-01-10T06:58:16;21.10;;;6.80;;
69502;SDS011;56704;54.242;12.442;2024-01-10T07:00:44;19.75;;;6.00;;
69502;SDS011;56704;54.242;12.442;2024-01-10T07:03:11;20.33;;;7.32;;
69502;SDS011;56704;54.242;12.442;2024-01-10T07:05:37;18.13;;;6.27;;
69502;SDS011;56704;54.242;12.442;2024-01-10T07:08:04;16.23;;;5.70;;
69502;SDS011;56704;54.242;12.442;2024-01-10T07:10:31;20.63;;;7.13;;
69502;SDS011;56704;54.242;12.442;2024-01-10T07:12:57;17.67;;;6.13;;
69502;SDS011;56704;54.242;12.442;2024-01-10T07:15:24;17.50;;;6.22;;
69502;SDS011;56704;54.242;12.442;2024-01-10T07:17:52;18.63;;;7.37;;
69502;SDS011;56704;54.242;12.442;2024-01-10T07:20:19;18.45;;;6.25;;
69502;SDS011;56704;54.242;12.442;2024-01-10T07:22:46;21.65;;;7.45;;
69502;SDS011;56704;54.242;12.442;2024-01-10T07:25:14;18.73;;;6.70;;
69502;SDS011;56704;54.242;12.442;2024-01-10T07:27:40;18.67;;;6.70;;
69502;SDS011;56704;54.242;12.442;2024-01-10T07:30:08;17.20;;;5.93;;
69502;SDS011;56704;54.242;12.442;2024-01-10T07:32:38;18.83;;;6.63;;
69502;SDS011;56704;54.242;12.442;2024-01-10T07:35:07;18.10;;;6.55;;
69502;SDS011;56704;54.242;12.442;2024-01-10T07:37:35;18.52;;;6.55;;
69502;SDS011;56704;54.242;12.442;2024-01-10T07:40:02;20.30;;;7.13;;
69502;SDS011;56704;54.242;12.442;2024-01-10T07:42:30;16.87;;;6.77;;
69502;SDS011;56704;54.242;12.442;2024-01-10T07:44:56;19.17;;;7.05;;
69502;SDS011;56704;54.242;12.442;2024-01-10T07:47:23;20.30;;;7.35;;
69502;SDS011;56704;54.242;12.442;2024-01-10T07:49:49;17.73;;;7.22;;
69502;SDS011;56704;54.242;12.442;2024-01-10T07:52:17;17.88;;;6.70;;
69502;SDS011;56704;54.242;12.442;2024-01-10T07:54:44;19.73;;;6.87;;
69502;SDS011;56704;54.242;12.442;2024-01-10T07:57:10;18.17;;;6.65;;
69502;SDS011;56704;54.242;12.442;2024-01-10T07:59:37;17.30;;;5.85;;
69502;SDS011;56704;54.242;12.442;2024-01-10T08:02:04;19.70;;;6.38;;
69502;SDS011;56704;54.242;12.442;2024-01-10T08:04:30;20.02;;;6.35;;
69502;SDS011;56704;54.242;12.442;2024-01-10T08:06:57;18.80;;;6.20;;
69502;SDS011;56704;54.242;12.442;2024-01-10T08:09:25;21.30;;;6.88;;
69502;SDS011;56704;54.242;12.442;2024-01-10T08:11:52;20.27;;;7.53;;
69502;SDS011;56704;54.242;12.442;2024-01-10T08:14:19;21.08;;;7.13;;
69502;SDS011;56704;54.242;12.442;2024-01-10T08:16:45;21.00;;;7.47;;
69502;SDS011;56704;54.242;12.442;2024-01-10T08:19:12;22.70;;;7.33;;
69502;SDS011;56704;54.242;12.442;2024-01-10T08:21:39;21.10;;;7.35;;
69502;SDS011;56704;54.242;12.442;2024-01-10T08:24:06;20.88;;;7.45;;
69502;SDS011;56704;54.242;12.442;2024-01-10T08:26:34;20.63;;;7.90;;
69502;SDS011;56704;54.242;12.442;2024-01-10T08:29:02;20.33;;;7.50;;
69502;SDS011;56704;54.242;12.442;2024-01-10T08:31:29;22.90;;;8.67;;
69502;SDS011;56704;54.242;12.442;2024-01-10T08:33:56;26.88;;;9.15;;
69502;SDS011;56704;54.242;12.442;2024-01-10T08:36:23;22.52;;;9.13;;
69502;SDS011;56704;54.242;12.442;2024-01-10T08:38:50;24.52;;;8.57;;
69502;SDS011;56704;54.242;12.442;2024-01-10T08:41:17;24.52;;;9.73;;
69502;SDS011;56704;54.242;12.442;2024-01-10T08:43:45;25.33;;;8.17;;
69502;SDS011;56704;54.242;12.442;2024-01-10T08:46:12;26.80;;;9.60;;
69502;SDS011;56704;54.242;12.442;2024-01-10T08:48:39;28.08;;;9.75;;
69502;SDS011;56704;54.242;12.442;2024-01-10T08:51:05;26.38;;;9.77;;
69502;SDS011;56704;54.242;12.442;2024-01-10T08:53:34;25.23;;;9.20;;
69502;SDS011;56704;54.242;12.442;2024-01-10T08:56:01;24.40;;;8.57;;
69502;SDS011;56704;54.242;12.442;2024-01-10T08:58:27;22.90;;;8.52;;
69502;SDS011;56704;54.242;12.442;2024-01-10T09:00:55;28.15;;;9.35;;
69502;SDS011;56704;54.242;12.442;2024-01-10T09:03:22;24.58;;;7.95;;
69502;SDS011;56704;54.242;12.442;2024-01-10T09:05:48;28.73;;;9.05;;
69502;SDS011;56704;54.242;12.442;2024-01-10T09:08:15;26.47;;;8.50;;
69502;SDS011;56704;54.242;12.442;2024-01-10T09:10:42;21.20;;;8.02;;
69502;SDS011;56704;54.242;12.442;2024-01-10T09:13:08;27.10;;;9.52;;
69502;SDS011;56704;54.242;12.442;2024-01-10T09:15:35;23.98;;;8.55;;
69502;SDS011;56704;54.242;12.442;2024-01-10T09:18:03;27.17;;;9.32;;
69502;SDS011;56704;54.242;12.442;2024-01-10T09:20:30;26.20;;;8.60;;
69502;SDS011;56704;54.242;12.442;2024-01-10T09:22:57;26.90;;;9.27;;
69502;SDS011;56704;54.242;12.442;2024-01-10T09:25:25;26.10;;;10.00;;
69502;SDS011;56704;54.242;12.442;2024-01-10T09:27:51;26.73;;;9.32;;
69502;SDS011;56704;54.242;12.442;2024-01-10T09:30:19;26.00;;;9.02;;
69502;SDS011;56704;54.242;12.442;2024-01-10T09:32:46;28.07;;;9.17;;
69502;SDS011;56704;54.242;12.442;2024-01-10T09:35:14;29.77;;;9.75;;
69502;SDS011;56704;54.242;12.442;2024-01-10T09:37:42;24.33;;;9.00;;
69502;SDS011;56704;54.242;12.442;2024-01-10T09:40:10;28.77;;;9.45;;
69502;SDS011;56704;54.242;12.442;2024-01-10T09:42:40;26.80;;;8.80;;
69502;SDS011;56704;54.242;12.442;2024-01-10T09:45:08;24.33;;;8.00;;
69502;SDS011;56704;54.242;12.442;2024-01-10T09:47:37;27.48;;;8.30;;
69502;SDS011;56704;54.242;12.442;2024-01-10T09:50:07;27.73;;;8.80;;
69502;SDS011;56704;54.242;12.442;2024-01-10T09:52:39;31.83;;;9.15;;
69502;SDS011;56704;54.242;12.442;2024-01-10T09:55:07;23.05;;;8.50;;
69502;SDS011;56704;54.242;12.442;2024-01-10T09:57:35;31.47;;;9.93;;
69502;SDS011;56704;54.242;12.442;2024-01-10T10:00:02;26.27;;;8.95;;
69502;SDS011;56704;54.242;12.442;2024-01-10T10:02:35;27.92;;;8.35;;
69502;SDS011;56704;54.242;12.442;2024-01-10T10:05:07;24.48;;;8.35;;
69502;SDS011;56704;54.242;12.442;2024-01-10T10:07:44;25.30;;;8.43;;
69502;SDS011;56704;54.242;12.442;2024-01-10T10:10:11;29.80;;;8.20;;
69502;SDS011;56704;54.242;12.442;2024-01-10T10:12:43;27.42;;;7.97;;
69502;SDS011;56704;54.242;12.442;2024-01-10T10:15:11;31.38;;;9.35;;
69502;SDS011;56704;54.242;12.442;2024-01-10T10:17:39;31.15;;;9.23;;
69502;SDS011;56704;54.242;12.442;2024-01-10T10:20:11;26.40;;;7.75;;
69502;SDS011;56704;54.242;12.442;2024-01-10T10:22:39;26.47;;;8.47;;
69502;SDS011;56704;54.242;12.442;2024-01-10T10:25:08;25.92;;;8.45;;
69502;SDS011;56704;54.242;12.442;2024-01-10T10:27:36;29.92;;;9.60;;
69502;SDS011;56704;54.242;12.442;2024-01-10T10:30:03;27.80;;;8.95;;
69502;SDS011;56704;54.242;12.442;2024-01-10T10:32:34;27.92;;;8.55;;
69502;SDS011;56704;54.242;12.442;2024-01-10T10:35:00;23.10;;;7.80;;
69502;SDS011;56704;54.242;12.442;2024-01-10T10:37:28;27.60;;;8.63;;
69502;SDS011;56704;54.242;12.442;2024-01-10T10:39:54;28.35;;;10.20;;
69502;SDS011;56704;54.242;12.442;2024-01-10T10:42:22;26.33;;;7.70;;
69502;SDS011;56704;54.242;12.442;2024-01-10T10:44:51;26.88;;;8.70;;
69502;SDS011;56704;54.242;12.442;2024-01-10T10:47:23;23.53;;;7.87;;
69502;SDS011;56704;54.242;12.442;2024-01-10T10:49:54;26.42;;;8.68;;
69502;SDS011;56704;54.242;12.442;2024-01-10T10:52:21;26.58;;;8.18;;
69502;SDS011;56704;54.242;12.442;2024-01-10T10:54:49;24.55;;;8.80;;
69502;SDS011;56704;54.242;12.442;2024-01-10T10:57:20;24.80;;;8.45;;
69502;SDS011;56704;54.242;12.442;2024-01-10T10:59:48;25.07;;;8.43;;
69502;SDS011;56704;54.242;12.442;2024-01-10T11:02:18;21.52;;;8.25;;
69502;SDS011;56704;54.242;12.442;2024-01-10T11:04:48;24.17;;;7.45;;
69502;SDS011;56704;54.242;12.442;2024-01-10T11:07:14;21.17;;;7.30;;
69502;SDS011;56704;54.242;12.442;2024-01-10T11:09:41;21.67;;;7.00;;
69502;SDS011;56704;54.242;12.442;2024-01-10T11:12:17;20.83;;;6.83;;
69502;SDS011;56704;54.242;12.442;2024-01-10T11:15:00;21.88;;;6.40;;
69502;SDS011;56704;54.242;12.442;2024-01-10T11:20:36;19.80;;;6.75;;
69502;SDS011;56704;54.242;12.442;2024-01-10T11:23:22;21.27;;;7.00;;
69502;SDS011;56704;54.242;12.442;2024-01-10T11:26:02;18.07;;;5.57;;
69502;SDS011;56704;54.242;12.442;2024-01-10T11:28:30;20.50;;;6.57;;
69502;SDS011;56704;54.242;12.442;2024-01-10T11:30:58;18.73;;;6.50;;
69502;SDS011;56704;54.242;12.442;2024-01-10T11:33:26;19.33;;;6.07;;
69502;SDS011;56704;54.242;12.442;2024-01-10T11:36:07;16.73;;;5.90;;
69502;SDS011;56704;54.242;12.442;2024-01-10T11:38:39;18.63;;;5.97;;
69502;SDS011;56704;54.242;12.442;2024-01-10T11:41:07;17.42;;;6.22;;
69502;SDS011;56704;54.242;12.442;2024-01-10T11:43:36;17.10;;;6.43;;
69502;SDS011;56704;54.242;12.442;2024-01-10T11:46:05;20.95;;;6.72;;
69502;SDS011;56704;54.242;12.442;2024-01-10T11:48:32;21.27;;;6.78;;
69502;SDS011;56704;54.242;12.442;2024-01-10T11:50:59;19.20;;;6.33;;
69502;SDS011;56704;54.242;12.442;2024-01-10T11:53:39;19.20;;;6.50;;
69502;SDS011;56704;54.242;12.442;2024-01-10T11:56:10;18.75;;;6.05;;
69502;SDS011;56704;54.242;12.442;2024-01-10T11:58:52;19.73;;;6.68;;
69502;SDS011;56704;54.242;12.442;2024-01-10T12:01:21;19.52;;;6.82;;
69502;SDS011;56704;54.242;12.442;2024-01-10T12:03:50;17.43;;;6.17;;
69502;SDS011;56704;54.242;12.442;2024-01-10T12:06:17;19.63;;;6.45;;
69502;SDS011;56704;54.242;12.442;2024-01-10T12:08:46;20.50;;;7.55;;
69502;SDS011;56704;54.242;12.442;2024-01-10T12:11:12;17.77;;;6.70;;
69502;SDS011;56704;54.242;12.442;2024-01-10T12:13:39;21.52;;;7.43;;
69502;SDS011;56704;54.242;12.442;2024-01-10T12:16:05;19.93;;;6.80;;
69502;SDS011;56704;54.242;12.442;2024-01-10T12:18:34;21.10;;;7.18;;
69502;SDS011;56704;54.242;12.442;2024-01-10T12:21:00;20.17;;;6.88;;
69502;SDS011;56704;54.242;12.442;2024-01-10T12:23:27;19.05;;;7.45;;
69502;SDS011;56704;54.242;12.442;2024-01-10T12:25:56;20.35;;;6.97;;
69502;SDS011;56704;54.242;12.442;2024-01-10T12:28:23;20.87;;;7.70;;
69502;SDS011;56704;54.242;12.442;2024-01-10T12:30:50;20.17;;;6.38;;
69502;SDS011;56704;54.242;12.442;2024-01-10T12:33:18;18.10;;;6.53;;
69502;SDS011;56704;54.242;12.442;2024-01-10T12:36:02;17.73;;;6.63;;
69502;SDS011;56704;54.242;12.442;2024-01-10T12:38:30;16.58;;;6.50;;
69502;SDS011;56704;54.242;12.442;2024-01-10T12:40:58;19.90;;;6.37;;
69502;SDS011;56704;54.242;12.442;2024-01-10T12:43:25;16.77;;;5.53;;
69502;SDS011;56704;54.242;12.442;2024-01-10T12:46:02;16.63;;;6.35;;
69502;SDS011;56704;54.242;12.442;2024-01-10T12:48:29;16.73;;;5.65;;
69502;SDS011;56704;54.242;12.442;2024-01-10T12:50:56;19.02;;;6.50;;
69502;SDS011;56704;54.242;12.442;2024-01-10T12:53:27;17.30;;;6.00;;
69502;SDS011;56704;54.242;12.442;2024-01-10T12:55:54;16.30;;;5.85;;
69502;SDS011;56704;54.242;12.442;2024-01-10T12:58:21;17.67;;;5.63;;
69502;SDS011;56704;54.242;12.442;2024-01-10T13:00:47;15.73;;;5.65;;
69502;SDS011;56704;54.242;12.442;2024-01-10T13:03:14;15.60;;;5.65;;
69502;SDS011;56704;54.242;12.442;2024-01-10T13:05:41;17.77;;;5.53;;
69502;SDS011;56704;54.242;12.442;2024-01-10T13:08:09;16.98;;;6.40;;
69502;SDS011;56704;54.242;12.442;2024-01-10T13:10:38;16.25;;;6.13;;
69502;SDS011;56704;54.242;12.442;2024-01-10T13:13:04;15.00;;;5.57;;
69502;SDS011;56704;54.242;12.442;2024-01-10T13:15:31;17.38;;;6.15;;
69502;SDS011;56704;54.242;12.442;2024-01-10T13:17:57;16.83;;;5.93;;
69502;SDS011;56704;54.242;12.442;2024-01-10T13:20:24;16.35;;;6.03;;
69502;SDS011;56704;54.242;12.442;2024-01-10T13:22:52;15.25;;;6.00;;
69502;SDS011;56704;54.242;12.442;2024-01-10T13:25:19;17.55;;;6.20;;
69502;SDS011;56704;54.242;12.442;2024-01-10T13:27:49;16.83;;;6.22;;
69502;SDS011;56704;54.242;12.442;2024-01-10T13:30:16;15.93;;;5.47;;
69502;SDS011;56704;54.242;12.442;2024-01-10T13:32:43;18.45;;;7.05;;
69502;SDS011;56704;54.242;12.442;2024-01-10T13:35:11;19.15;;;6.00;;
69502;SDS011;56704;54.242;12.442;2024-01-10T13:37:38;17.17;;;5.45;;
69502;SDS011;56704;54.242;12.442;2024-01-10T13:40:06;14.90;;;5.95;;
69502;SDS011;56704;54.242;12.442;2024-01-10T13:42:34;19.30;;;5.67;;
69502;SDS011;56704;54.242;12.442;2024-01-10T13:45:03;14.60;;;5.38;;
69502;SDS011;56704;54.242;12.442;2024-01-10T13:47:31;12.73;;;4.78;;
69502;SDS011;56704;54.242;12.442;2024-01-10T13:49:58;14.85;;;5.47;;
69502;SDS011;56704;54.242;12.442;2024-01-10T13:52:24;16.05;;;5.78;;
69502;SDS011;56704;54.242;12.442;2024-01-10T13:54:51;16.57;;;5.37;;
69502;SDS011;56704;54.242;12.442;2024-01-10T13:57:18;15.77;;;5.72;;
69502;SDS011;56704;54.242;12.442;2024-01-10T13:59:46;18.08;;;6.05;;
69502;SDS011;56704;54.242;12.442;2024-01-10T14:02:14;20.05;;;6.93;;
69502;SDS011;56704;54.242;12.442;2024-01-10T14:04:41;21.60;;;7.47;;
69502;SDS011;56704;54.242;12.442;2024-01-10T14:07:08;22.00;;;7.80;;
69502;SDS011;56704;54.242;12.442;2024-01-10T14:09:34;22.17;;;7.50;;
69502;SDS011;56704;54.242;12.442;2024-01-10T14:12:01;19.50;;;7.72;;
69502;SDS011;56704;54.242;12.442;2024-01-10T14:14:28;19.85;;;7.28;;
69502;SDS011;56704;54.242;12.442;2024-01-10T14:16:55;20.30;;;7.82;;
69502;SDS011;56704;54.242;12.442;2024-01-10T14:19:23;18.83;;;7.27;;
69502;SDS011;56704;54.242;12.442;2024-01-10T14:21:50;16.52;;;5.05;;
69502;SDS011;56704;54.242;12.442;2024-01-10T14:24:17;12.82;;;5.38;;
69502;SDS011;56704;54.242;12.442;2024-01-10T14:26:43;13.18;;;4.45;;